createdAt,value
2018-08-21T00:00:45.604Z,1079.69
2018-08-21T00:01:45.621Z,1080.09
2018-08-21T00:02:45.578Z,1080.52
2018-08-21T00:03:45.591Z,1080.62
2018-08-21T00:04:45.597Z,1080.81
2018-08-21T00:05:45.600Z,1081.15
2018-08-21T00:06:45.611Z,1081.36
2018-08-21T00:07:45.589Z,1081.65
2018-08-21T00:08:45.608Z,1081.94
2018-08-21T00:09:45.592Z,1082.17
2018-08-21T00:10:45.598Z,1082.46
2018-08-21T00:11:45.605Z,1082.61
2018-08-21T00:12:45.610Z,1082.86
2018-08-21T00:13:45.624Z,1083.1
2018-08-21T00:14:45.606Z,1083.28
2018-08-21T00:15:45.611Z,1083.57
2018-08-21T00:16:45.600Z,1083.78
2018-08-21T00:17:45.632Z,1083.83
2018-08-21T00:18:45.618Z,1084.26
2018-08-21T00:19:45.622Z,1084.58
2018-08-21T00:20:45.627Z,1085.07
2018-08-21T00:21:45.636Z,1085.45
2018-08-21T00:22:45.620Z,1085.66
2018-08-21T00:23:45.622Z,1086.04
2018-08-21T00:24:45.632Z,1086.37
2018-08-21T00:25:45.641Z,1086.89
2018-08-21T00:26:45.639Z,1087.65
2018-08-21T00:27:45.678Z,1087.88
2018-08-21T00:28:45.662Z,1088.54
2018-08-21T00:29:45.633Z,1089.13
2018-08-21T00:30:45.630Z,1089.57
2018-08-21T00:31:45.632Z,1089.93
2018-08-21T00:32:45.644Z,1090.7
2018-08-21T00:33:45.657Z,1091.19
2018-08-21T00:34:45.694Z,1091.74
2018-08-21T00:39:15.713Z,1093.65
2018-08-21T00:40:15.651Z,1094.17
2018-08-21T00:41:15.679Z,1094.29
2018-08-21T00:42:15.676Z,1094.61
2018-08-21T00:43:15.670Z,1095.18
2018-08-21T00:44:15.684Z,1095.45
2018-08-21T00:45:15.667Z,1096.03
2018-08-21T00:46:15.675Z,1096.21
2018-08-21T00:47:15.687Z,1096.72
2018-08-21T00:48:15.683Z,1096.86
2018-08-21T00:49:15.702Z,1096.98
2018-08-21T00:50:15.670Z,1097.17
2018-08-21T00:51:15.701Z,1097.52
2018-08-21T00:52:15.675Z,1097.57
2018-08-21T00:53:15.706Z,1097.83
2018-08-21T00:54:15.680Z,1098.04
2018-08-21T00:55:15.697Z,1098.28
2018-08-21T00:56:15.792Z,1098.54
2018-08-21T00:57:15.704Z,1098.61
2018-08-21T00:58:15.761Z,1098.82
2018-08-21T00:59:15.710Z,1099.18
2018-08-21T01:00:15.699Z,1099.42
2018-08-21T01:01:15.794Z,1099.81
2018-08-21T01:02:15.810Z,1099.99
2018-08-21T01:03:15.772Z,1100.26
2018-08-21T01:04:15.773Z,1100.64
2018-08-21T01:05:15.782Z,1100.57
2018-08-21T01:06:15.777Z,1101.08
2018-08-21T01:07:15.784Z,1101.3
2018-08-21T01:08:15.781Z,1101.51
2018-08-21T01:09:15.780Z,1101.95
2018-08-21T01:10:15.799Z,1102.43
2018-08-21T01:11:15.783Z,1102.75
2018-08-21T01:12:15.789Z,1103.33
2018-08-21T01:13:15.784Z,1103.76
2018-08-21T01:14:15.787Z,1104.17
2018-08-21T01:15:15.809Z,1104.57
2018-08-21T01:16:15.796Z,1104.74
2018-08-21T01:17:15.797Z,1104.98
2018-08-21T01:18:15.785Z,1105.35
2018-08-21T01:19:15.824Z,1105.58
2018-08-21T01:20:15.816Z,1106.1
2018-08-21T01:21:15.848Z,1106.32
2018-08-21T01:22:15.823Z,1106.74
2018-08-21T01:23:15.813Z,1107.15
2018-08-21T01:24:15.802Z,1107.5
2018-08-21T01:25:15.808Z,1108.05
2018-08-21T01:26:15.819Z,1108.42
2018-08-21T01:27:15.803Z,1108.9
2018-08-21T01:28:15.832Z,1109.26
2018-08-21T01:29:15.824Z,1109.65
2018-08-21T01:30:15.815Z,1109.88
2018-08-21T01:31:15.819Z,1110.39
2018-08-21T01:32:15.840Z,1110.71
2018-08-21T01:33:15.824Z,1110.97
2018-08-21T01:34:15.829Z,1111.22
2018-08-21T01:35:15.837Z,1111.52
2018-08-21T01:36:15.846Z,1111.82
2018-08-21T01:37:15.833Z,1111.93
2018-08-21T01:38:15.828Z,1112.42
2018-08-21T01:39:15.837Z,1113.03
2018-08-21T01:40:15.829Z,1113.43
2018-08-21T01:41:15.828Z,1113.72
2018-08-21T01:42:15.880Z,1114.15
2018-08-21T01:43:15.856Z,1114.58
2018-08-21T01:44:15.830Z,1115.01
2018-08-21T01:45:15.844Z,1115.3
2018-08-21T01:46:15.872Z,1115.63
2018-08-21T01:47:15.848Z,1116.05
2018-08-21T01:48:15.858Z,1116.49
2018-08-21T01:49:15.879Z,1117.1
2018-08-21T01:50:15.858Z,1117.55
2018-08-21T01:51:15.860Z,1118.04
2018-08-21T01:52:15.852Z,1118.44
2018-08-21T01:53:15.876Z,1118.83
2018-08-21T01:54:15.868Z,1119.08
2018-08-21T01:55:15.872Z,1119.45
2018-08-21T01:56:15.893Z,1119.86
2018-08-21T01:57:15.875Z,1120.28
2018-08-21T01:58:15.868Z,1120.63
2018-08-21T01:59:15.864Z,1120.9
2018-08-21T02:00:15.868Z,1121.36
2018-08-21T02:01:15.889Z,1121.63
2018-08-21T02:02:15.884Z,1121.88
2018-08-21T02:03:15.902Z,1122.17
2018-08-21T02:04:15.867Z,1122.6
2018-08-21T02:05:15.890Z,1122.81
2018-08-21T02:06:15.888Z,1123.02
2018-08-21T02:07:15.886Z,1123.3
2018-08-21T02:08:15.895Z,1123.28
2018-08-21T02:09:15.889Z,1123.4
2018-08-21T02:10:15.916Z,1123.61
2018-08-21T02:11:15.902Z,1123.8
2018-08-21T02:12:15.890Z,1124.17
2018-08-21T02:13:15.917Z,1124.56
2018-08-21T02:14:15.903Z,1125.07
2018-08-21T02:15:15.901Z,1125.31
2018-08-21T02:16:15.907Z,1125.71
2018-08-21T02:17:15.915Z,1125.97
2018-08-21T02:18:15.910Z,1126.29
2018-08-21T02:19:15.905Z,1126.57
2018-08-21T02:20:15.911Z,1126.63
2018-08-21T02:21:15.903Z,1126.76
2018-08-21T02:22:15.925Z,1126.71
2018-08-21T02:23:15.914Z,1126.79
2018-08-21T02:24:15.850Z,1126.8
2018-08-21T02:25:15.854Z,1126.76
2018-08-21T02:26:15.836Z,1126.78
2018-08-21T02:27:15.853Z,1126.71
2018-08-21T02:28:15.875Z,1126.76
2018-08-21T02:29:15.858Z,1126.76
2018-08-21T02:30:15.858Z,1126.81
2018-08-21T02:31:15.871Z,1126.89
2018-08-21T02:32:15.852Z,1126.95
2018-08-21T02:33:15.851Z,1127
2018-08-21T02:34:15.882Z,1127.22
2018-08-21T02:35:15.850Z,1127.31
2018-08-21T02:36:15.861Z,1127.42
2018-08-21T02:37:15.873Z,1127.62
2018-08-21T02:38:15.871Z,1127.83
2018-08-21T02:39:15.883Z,1127.96
2018-08-21T02:40:15.869Z,1128.12
2018-08-21T02:41:15.857Z,1128.2
2018-08-21T02:42:15.893Z,1128.36
2018-08-21T02:43:15.873Z,1128.61
2018-08-21T02:44:15.883Z,1128.71
2018-08-21T02:45:15.893Z,1128.76
2018-08-21T02:46:15.889Z,1128.82
2018-08-21T02:47:15.891Z,1128.93
2018-08-21T02:48:15.875Z,1128.93
2018-08-21T02:49:15.884Z,1128.96
2018-08-21T02:50:15.895Z,1129.05
2018-08-21T02:51:15.893Z,1129.06
2018-08-21T02:52:15.941Z,1129.12
2018-08-21T02:53:15.907Z,1129.22
2018-08-21T02:54:15.903Z,1129.39
2018-08-21T02:55:15.890Z,1129.52
2018-08-21T02:56:15.893Z,1129.63
2018-08-21T02:57:15.909Z,1129.74
2018-08-21T02:58:15.906Z,1129.81
2018-08-21T02:59:15.900Z,1129.84
2018-08-21T03:00:15.914Z,1129.92
2018-08-21T03:01:15.895Z,1130.07
2018-08-21T03:02:15.930Z,1130.11
2018-08-21T03:03:15.909Z,1130.27
2018-08-21T03:04:15.905Z,1130.43
2018-08-21T03:05:15.909Z,1130.68
2018-08-21T03:06:15.930Z,1130.88
2018-08-21T03:07:15.924Z,1131.21
2018-08-21T03:08:15.931Z,1131.55
2018-08-21T03:09:15.937Z,1131.84
2018-08-21T03:10:15.928Z,1132.1
2018-08-21T03:11:15.916Z,1132.36
2018-08-21T03:12:15.926Z,1132.61
2018-08-21T03:13:15.925Z,1132.82
2018-08-21T03:14:15.912Z,1132.92
2018-08-21T03:15:15.917Z,1133
2018-08-21T03:16:15.923Z,1133.04
2018-08-21T03:20:44.786Z,1132.84
2018-08-21T03:21:44.803Z,1132.72
2018-08-21T03:22:44.761Z,1132.77
2018-08-21T03:23:46.761Z,1132.78
2018-08-21T03:24:44.756Z,1132.81
2018-08-21T03:25:44.793Z,1132.83
2018-08-21T03:26:44.781Z,1132.81
2018-08-21T03:27:44.768Z,1132.81
2018-08-21T03:28:46.888Z,1132.79
2018-08-21T03:29:44.767Z,1132.72
2018-08-21T03:30:44.788Z,1132.68
2018-08-21T03:31:44.792Z,1132.61
2018-08-21T03:32:44.771Z,1132.59
2018-08-21T03:33:44.985Z,1132.56
2018-08-21T03:34:44.780Z,1132.51
2018-08-21T03:35:44.789Z,1132.52
2018-08-21T03:36:44.800Z,1132.53
2018-08-21T03:37:44.789Z,1132.5
2018-08-21T03:38:44.836Z,1132.48
2018-08-21T03:39:44.808Z,1132.48
2018-08-21T03:40:44.792Z,1132.41
2018-08-21T03:41:44.788Z,1132.32
2018-08-21T03:48:23.780Z,1132.23
2018-08-21T03:49:23.720Z,1132.15
2018-08-21T03:50:23.726Z,1132.18
2018-08-21T03:51:23.729Z,1132.17
2018-08-21T03:52:23.726Z,1132.19
2018-08-21T03:53:23.760Z,1132.28
2018-08-21T03:54:23.817Z,1132.29
2018-08-21T03:55:23.738Z,1132.47
2018-08-21T03:59:52.843Z,1132.96
2018-08-21T04:00:53.089Z,1132.98
2018-08-21T04:09:43.981Z,1133.14
2018-08-21T04:10:43.940Z,1133.15
2018-08-21T04:11:43.959Z,1133.22
2018-08-21T04:12:43.964Z,1133.31
2018-08-21T04:13:43.942Z,1133.42
2018-08-21T04:14:43.938Z,1133.54
2018-08-21T04:15:43.974Z,1133.68
2018-08-21T04:16:43.949Z,1133.72
2018-08-21T04:17:43.963Z,1133.82
2018-08-21T04:18:43.958Z,1133.86
2018-08-21T04:19:43.972Z,1133.92
2018-08-21T04:26:23.472Z,1134.21
2018-08-21T04:27:23.452Z,1134.24
2018-08-21T04:28:23.461Z,1134.27
2018-08-21T04:29:23.458Z,1134.35
2018-08-21T04:30:23.463Z,1134.44
2018-08-21T04:31:23.486Z,1134.48
2018-08-21T04:32:23.470Z,1134.56
2018-08-21T04:33:23.452Z,1134.63
2018-08-21T04:34:23.514Z,1134.72
2018-08-21T04:35:23.486Z,1134.83
2018-08-21T04:36:23.465Z,1134.87
2018-08-21T04:37:23.483Z,1134.98
2018-08-21T04:38:23.473Z,1134.97
2018-08-21T04:39:23.480Z,1134.95
2018-08-21T04:40:23.485Z,1134.99
2018-08-21T04:41:23.507Z,1134.96
2018-08-21T04:42:23.499Z,1134.94
2018-08-21T04:43:23.515Z,1134.97
2018-08-21T04:44:23.477Z,1134.96
2018-08-21T04:45:23.490Z,1135.03
2018-08-21T04:46:23.609Z,1135.07
2018-08-21T04:47:23.483Z,1135.09
2018-08-21T04:48:23.486Z,1135.15
2018-08-21T04:49:23.488Z,1135.2
2018-08-21T04:50:23.496Z,1135.24
2018-08-21T04:51:23.487Z,1135.33
2018-08-21T04:52:23.533Z,1135.41
2018-08-21T04:53:23.508Z,1135.53
2018-08-21T04:54:23.525Z,1135.59
2018-08-21T04:55:23.524Z,1135.67
2018-08-21T04:56:23.599Z,1135.7
2018-08-21T04:57:23.531Z,1135.74
2018-08-21T04:58:23.508Z,1135.79
2018-08-21T04:59:23.526Z,1135.76
2018-08-21T05:00:23.518Z,1135.8
2018-08-21T05:01:23.515Z,1135.86
2018-08-21T05:02:23.534Z,1135.78
2018-08-21T05:03:23.515Z,1135.8
2018-08-21T05:04:23.505Z,1135.79
2018-08-21T05:05:23.523Z,1135.86
2018-08-21T05:06:23.514Z,1135.84
2018-08-21T05:07:23.531Z,1135.82
2018-08-21T05:08:23.604Z,1135.89
2018-08-21T05:09:23.527Z,1135.86
2018-08-21T05:10:23.538Z,1135.8
2018-08-21T05:11:23.521Z,1135.83
2018-08-21T05:12:23.539Z,1135.84
2018-08-21T05:13:23.538Z,1135.84
2018-08-21T05:14:23.537Z,1135.82
2018-08-21T05:15:23.545Z,1135.78
2018-08-21T05:16:23.579Z,1135.75
2018-08-21T05:17:23.558Z,1135.71
2018-08-21T05:18:23.566Z,1135.71
2018-08-21T05:19:23.544Z,1135.65
2018-08-21T05:20:23.832Z,1135.6
2018-08-21T05:21:23.552Z,1135.56
2018-08-21T05:22:23.555Z,1135.51
2018-08-21T05:23:23.569Z,1135.47
2018-08-21T05:24:23.540Z,1135.44
2018-08-21T05:25:23.583Z,1135.33
2018-08-21T05:26:23.562Z,1135.24
2018-08-21T05:27:23.560Z,1135.16
2018-08-21T05:28:23.583Z,1135.1
2018-08-21T05:29:23.567Z,1134.96
2018-08-21T05:30:23.577Z,1134.88
2018-08-21T05:31:23.641Z,1134.7
2018-08-21T05:32:23.580Z,1134.53
2018-08-21T05:33:23.584Z,1134.37
2018-08-21T05:34:23.581Z,1134.23
2018-08-21T05:35:23.605Z,1134.06
2018-08-21T05:36:23.590Z,1133.95
2018-08-21T05:37:23.581Z,1133.85
2018-08-21T05:38:23.583Z,1133.74
2018-08-21T05:39:23.597Z,1133.64
2018-08-21T05:40:23.574Z,1133.51
2018-08-21T05:41:23.579Z,1133.45
2018-08-21T05:42:23.576Z,1133.4
2018-08-21T05:43:23.727Z,1133.26
2018-08-21T05:44:23.591Z,1133.19
2018-08-21T05:45:23.612Z,1133.03
2018-08-21T05:46:23.590Z,1132.88
2018-08-21T05:47:23.595Z,1132.69
2018-08-21T05:48:23.589Z,1132.44
2018-08-21T05:49:23.601Z,1132.21
2018-08-21T05:50:23.593Z,1131.98
2018-08-21T05:51:23.623Z,1131.62
2018-08-21T05:52:23.610Z,1131.22
2018-08-21T05:53:23.616Z,1130.5
2018-08-21T05:54:23.597Z,1129.28
2018-08-21T05:55:23.669Z,1125.94
2018-08-21T05:56:23.614Z,1120.6
2018-08-21T05:57:23.608Z,1115.63
2018-08-21T05:58:23.626Z,1110.59
2018-08-21T05:59:23.622Z,1105.89
2018-08-21T06:00:23.608Z,1102.23
2018-08-21T06:01:23.610Z,1100.37
2018-08-21T06:02:23.612Z,1100.42
2018-08-21T06:03:23.612Z,1098.83
2018-08-21T06:04:23.618Z,1098.02
2018-08-21T06:05:23.622Z,1095.36
2018-08-21T06:06:23.628Z,1090.76
2018-08-21T06:07:23.622Z,1086.68
2018-08-21T06:08:23.654Z,1083.43
2018-08-21T06:09:23.659Z,1077.15
2018-08-21T06:10:23.625Z,1067.93
2018-08-21T06:11:23.636Z,1059.12
2018-08-21T06:12:23.640Z,1051.8
2018-08-21T06:13:23.651Z,1045.8
2018-08-21T06:14:23.645Z,1040.14
2018-08-21T06:15:23.629Z,1035.34
2018-08-21T06:16:23.661Z,1030.96
2018-08-21T06:17:23.699Z,1027.24
2018-08-21T06:18:23.747Z,1023.2
2018-08-21T06:19:23.650Z,1018.72
2018-08-21T06:20:23.652Z,1014.26
2018-08-21T06:21:23.664Z,1009.1
2018-08-21T06:22:23.708Z,1004.28
2018-08-21T06:23:23.652Z,999.42
2018-08-21T06:24:23.660Z,994.68
2018-08-21T06:25:23.655Z,989.95
2018-08-21T06:26:23.668Z,985.44
2018-08-21T06:27:23.673Z,980.69
2018-08-21T06:28:23.683Z,976.13
2018-08-21T06:29:23.675Z,971.46
2018-08-21T06:30:23.688Z,966.91
2018-08-21T06:31:23.687Z,962.84
2018-08-21T06:32:23.691Z,958.42
2018-08-21T06:33:23.683Z,954.17
2018-08-21T06:34:23.689Z,950.6
2018-08-21T06:35:23.683Z,946.34
2018-08-21T06:36:23.692Z,941.93
2018-08-21T06:37:23.715Z,938.38
2018-08-21T06:38:23.700Z,935.27
2018-08-21T06:39:23.687Z,932.81
2018-08-21T06:40:23.694Z,929.99
2018-08-21T06:41:23.688Z,927.17
2018-08-21T06:42:23.698Z,924.82
2018-08-21T06:43:23.711Z,921.34
2018-08-21T06:44:23.705Z,917.98
2018-08-21T06:45:23.695Z,914.1
2018-08-21T06:46:23.759Z,909.93
2018-08-21T06:47:23.727Z,905.36
2018-08-21T06:48:23.695Z,900.01
2018-08-21T06:49:23.715Z,895.49
2018-08-21T06:50:23.751Z,893.32
2018-08-21T06:51:23.714Z,890.76
2018-08-21T06:52:23.722Z,887.71
2018-08-21T06:53:23.743Z,882.54
2018-08-21T07:00:04.746Z,850.03
2018-08-21T07:01:04.717Z,844.5
2018-08-21T07:02:04.714Z,838.16
2018-08-21T07:03:04.687Z,832.54
2018-08-21T07:04:04.698Z,829.39
2018-08-21T07:05:04.710Z,826.55
2018-08-21T07:06:04.705Z,823.51
2018-08-21T07:07:04.722Z,819.91
2018-08-21T07:08:04.720Z,816.98
2018-08-21T07:09:04.718Z,814.66
2018-08-21T07:10:04.703Z,811.89
2018-08-21T07:11:04.695Z,807.97
2018-08-21T07:12:04.709Z,803.93
2018-08-21T07:13:04.715Z,799.49
2018-08-21T07:14:04.717Z,796.63
2018-08-21T07:15:04.766Z,794.82
2018-08-21T07:16:04.728Z,791.67
2018-08-21T07:17:04.718Z,787.28
2018-08-21T07:18:04.711Z,781.65
2018-08-21T07:19:04.718Z,777.76
2018-08-21T07:20:04.733Z,774.98
2018-08-21T07:21:04.725Z,773.26
2018-08-21T07:22:04.748Z,771.89
2018-08-21T07:23:04.755Z,771.25
2018-08-21T07:24:04.757Z,770.02
2018-08-21T07:25:04.753Z,768.33
2018-08-21T07:26:04.744Z,766.42
2018-08-21T07:27:04.767Z,763.02
2018-08-21T07:28:04.753Z,759.49
2018-08-21T07:29:04.761Z,756.17
2018-08-21T07:30:04.757Z,754.27
2018-08-21T07:31:04.769Z,753.18
2018-08-21T07:32:04.765Z,750.34
2018-08-21T07:33:04.754Z,748.71
2018-08-21T07:34:04.749Z,746.14
2018-08-21T07:35:04.752Z,744.22
2018-08-21T07:36:04.767Z,742.48
2018-08-21T07:37:04.768Z,741.63
2018-08-21T07:38:04.775Z,742.63
2018-08-21T07:39:04.773Z,743.09
2018-08-21T07:40:04.780Z,743.28
2018-08-21T07:41:04.774Z,743.78
2018-08-21T07:42:04.778Z,746.5
2018-08-21T07:43:04.767Z,748.87
2018-08-21T07:44:04.781Z,749.53
2018-08-21T07:45:04.777Z,749.83
2018-08-21T07:46:04.793Z,749.2
2018-08-21T07:47:04.771Z,748.23
2018-08-21T07:48:04.785Z,748.08
2018-08-21T07:49:04.781Z,746.8
2018-08-21T07:50:04.790Z,745.55
2018-08-21T07:51:04.795Z,744.89
2018-08-21T07:57:45.144Z,735.52
2018-08-21T07:58:45.121Z,733.71
2018-08-21T07:59:45.120Z,731.75
2018-08-21T08:00:45.134Z,731.09
2018-08-21T08:01:45.146Z,730.28
2018-08-21T08:02:45.149Z,729.14
2018-08-21T08:03:45.143Z,728.43
2018-08-21T08:04:45.152Z,728.78
2018-08-21T08:05:45.127Z,728.26
2018-08-21T08:06:45.137Z,727.77
2018-08-21T08:07:45.133Z,726.75
2018-08-21T08:08:45.153Z,724.66
2018-08-21T08:09:45.218Z,722.31
2018-08-21T08:10:45.153Z,721.86
2018-08-21T08:11:45.185Z,721.03
2018-08-21T08:12:45.152Z,720.38
2018-08-21T08:13:45.201Z,719.38
2018-08-21T08:14:45.151Z,721.19
2018-08-21T08:15:45.318Z,721.65
2018-08-21T08:16:45.238Z,722.45
2018-08-21T08:17:45.160Z,722.31
2018-08-21T08:18:45.169Z,721.79
2018-08-21T08:19:45.189Z,721.31
2018-08-21T08:20:45.150Z,720.64
2018-08-21T08:21:45.157Z,718.5
2018-08-21T08:22:45.172Z,714.81
2018-08-21T08:23:45.169Z,712.16
2018-08-21T08:24:45.192Z,710.66
2018-08-21T08:25:45.183Z,709.45
2018-08-21T08:26:45.202Z,706.42
2018-08-21T08:27:45.199Z,702.2
2018-08-21T08:28:45.175Z,698.29
2018-08-21T08:29:45.207Z,693.05
2018-08-21T08:30:45.190Z,688.59
2018-08-21T08:31:45.187Z,683.45
2018-08-21T08:32:45.203Z,678.06
2018-08-21T08:33:45.198Z,672.83
2018-08-21T08:34:45.203Z,667.39
2018-08-21T08:35:45.201Z,661.23
2018-08-21T08:36:45.225Z,657.5
2018-08-21T08:37:45.199Z,654.28
2018-08-21T08:38:45.194Z,653.01
2018-08-21T08:39:45.220Z,651.91
2018-08-21T08:40:45.216Z,649.82
2018-08-21T08:41:45.315Z,646.26
2018-08-21T08:42:45.224Z,643.54
2018-08-21T08:49:23.865Z,626.79
2018-08-21T08:50:23.871Z,623.5
2018-08-21T08:51:23.864Z,621.09
2018-08-21T08:52:23.847Z,620.77
2018-08-21T08:53:23.934Z,620.74
2018-08-21T08:54:23.882Z,618.55
2018-08-21T08:55:23.878Z,615.95
2018-08-21T08:56:23.878Z,612.07
2018-08-21T08:57:23.885Z,608.36
2018-08-21T08:58:23.906Z,604.84
2018-08-21T08:59:23.891Z,603.16
2018-08-21T09:00:23.872Z,602.95
2018-08-21T09:01:23.875Z,603.11
2018-08-21T09:02:23.887Z,605.2
2018-08-21T09:03:23.914Z,606.88
2018-08-21T09:04:23.901Z,608.75
2018-08-21T09:05:23.969Z,609.47
2018-08-21T09:06:23.888Z,610.2
2018-08-21T09:07:23.885Z,612.41
2018-08-21T09:08:23.898Z,614.29
2018-08-21T09:09:24.001Z,611.52
2018-08-21T09:10:23.908Z,607.21
2018-08-21T09:11:23.913Z,603.67
2018-08-21T09:12:23.937Z,598.62
2018-08-21T09:13:23.918Z,595.64
2018-08-21T09:14:23.902Z,592.41
2018-08-21T09:15:23.898Z,588.22
2018-08-21T09:16:23.953Z,583.29
2018-08-21T09:17:23.938Z,579.49
2018-08-21T09:18:23.932Z,574.72
2018-08-21T09:19:23.945Z,569.7
2018-08-21T09:20:23.926Z,563.95
2018-08-21T09:21:23.904Z,556.6
2018-08-21T09:22:23.920Z,548.42
2018-08-21T09:23:24.019Z,545.85
2018-08-21T09:24:23.947Z,544.06
2018-08-21T09:25:23.945Z,541.51
2018-08-21T09:26:23.913Z,536.75
2018-08-21T09:27:23.928Z,530.76
2018-08-21T09:28:23.949Z,524.96
2018-08-21T09:29:24.021Z,519.37
2018-08-21T09:30:23.935Z,513.97
2018-08-21T09:31:24.248Z,510.15
2018-08-21T09:32:23.959Z,507.34
2018-08-21T09:33:24.402Z,502.43
2018-08-21T09:34:31.681Z,495.94
2018-08-21T09:35:24.241Z,491.66
2018-08-21T09:36:24.106Z,490.01
2018-08-21T09:37:24.422Z,490.8
2018-08-21T09:38:24.390Z,503.06
2018-08-21T09:39:24.256Z,505.67
2018-08-21T09:40:23.965Z,503.67
2018-08-21T09:41:23.938Z,519.58
2018-08-21T09:42:24.233Z,519.97
2018-08-21T09:43:24.289Z,520.39
2018-08-21T09:44:24.327Z,520.75
2018-08-21T09:45:23.979Z,519.33
2018-08-21T09:46:23.959Z,517.74
2018-08-21T09:47:24.061Z,513.92
2018-08-21T09:48:23.948Z,508.18
2018-08-21T09:52:54.285Z,484.96
2018-08-21T09:53:53.983Z,488.64
2018-08-21T09:54:53.947Z,485.37
2018-08-21T09:55:54.008Z,482.26
2018-08-21T09:56:54.009Z,478.96
2018-08-21T09:57:53.983Z,475.24
2018-08-21T09:58:53.975Z,468.54
2018-08-21T09:59:53.956Z,461.71
2018-08-21T10:00:53.996Z,455.62
2018-08-21T10:01:54.015Z,445.29
2018-08-21T10:02:53.969Z,436.59
2018-08-21T10:03:54.010Z,428.28
2018-08-21T10:04:53.982Z,428.28
2018-08-21T10:05:54.066Z,429.78
2018-08-21T10:06:53.993Z,429.97
2018-08-21T10:07:54.052Z,437.43
2018-08-21T10:08:53.976Z,457.94
2018-08-21T10:09:54.046Z,486.35
2018-08-21T10:10:54.055Z,493.72
2018-08-21T10:11:54.033Z,492.75
2018-08-21T10:12:54.035Z,489.44
2018-08-21T10:13:54.010Z,483.67
2018-08-21T10:14:53.987Z,478.72
2018-08-21T10:15:53.990Z,473.16
2018-08-21T10:16:53.998Z,467.29
2018-08-21T10:17:54.032Z,462.92
2018-08-21T10:18:54.040Z,458.54
2018-08-21T10:19:54.010Z,453.25
2018-08-21T10:20:54.013Z,446.52
2018-08-21T10:21:54.025Z,465
2018-08-21T10:22:54.027Z,481.2
2018-08-21T10:23:54.007Z,494.71
2018-08-21T10:24:54.017Z,504.86
2018-08-21T10:25:54.063Z,516.6
2018-08-21T10:26:54.031Z,530.95
2018-08-21T10:27:54.025Z,535.07
2018-08-21T10:28:54.008Z,528.93
2018-08-21T10:29:54.021Z,521.35
2018-08-21T10:30:54.032Z,515.92
2018-08-21T10:31:54.034Z,512.93
2018-08-21T10:32:54.029Z,511.69
2018-08-21T10:33:54.027Z,508.63
2018-08-21T10:34:54.094Z,504.36
2018-08-21T10:35:54.050Z,498.67
2018-08-21T10:36:54.053Z,492.95
2018-08-21T10:37:54.058Z,486.19
2018-08-21T10:38:54.073Z,477.9
2018-08-21T10:39:54.048Z,468.56
2018-08-21T10:40:54.072Z,460.85
2018-08-21T10:41:54.066Z,457.21
2018-08-21T10:42:54.054Z,452.43
2018-08-21T10:43:54.068Z,443.11
2018-08-21T10:44:54.042Z,441.02
2018-08-21T10:45:54.047Z,458.9
2018-08-21T10:46:54.050Z,477
2018-08-21T10:47:54.051Z,492.65
2018-08-21T10:48:54.059Z,507.46
2018-08-21T10:49:54.063Z,513.76
2018-08-21T10:50:54.081Z,507.3
2018-08-21T10:51:54.077Z,505.06
2018-08-21T10:52:54.067Z,500.58
2018-08-21T10:53:54.081Z,493.65
2018-08-21T10:54:54.082Z,484.44
2018-08-21T10:55:54.094Z,476.78
2018-08-21T10:56:54.085Z,470.1
2018-08-21T10:57:54.084Z,466.1
2018-08-21T10:58:54.090Z,471.7
2018-08-21T10:59:54.080Z,482.88
2018-08-21T11:00:54.076Z,490.09
2018-08-21T11:01:54.073Z,484.8
2018-08-21T11:02:54.121Z,473.64
2018-08-21T11:03:54.090Z,464.21
2018-08-21T11:04:54.100Z,456.08
2018-08-21T11:05:54.102Z,449.1
2018-08-21T11:06:54.123Z,441.68
2018-08-21T11:07:54.133Z,432.58
2018-08-21T11:08:54.093Z,426.57
2018-08-21T11:09:54.100Z,424.56
2018-08-21T11:10:54.105Z,418.99
2018-08-21T11:11:54.110Z,412.33
2018-08-21T11:12:54.148Z,406.03
2018-08-21T11:13:54.126Z,400.78
2018-08-21T11:14:54.126Z,398
2018-08-21T11:15:54.113Z,398.18
2018-08-21T11:16:54.108Z,396.88
2018-08-21T11:17:54.123Z,395.11
2018-08-21T11:18:54.140Z,392.93
2018-08-21T11:19:54.132Z,394.08
2018-08-21T11:20:54.134Z,396.23
2018-08-21T11:21:54.140Z,395.14
2018-08-21T11:22:54.112Z,392.94
2018-08-21T11:23:54.132Z,390.54
2018-08-21T11:24:54.133Z,391.83
2018-08-21T11:25:54.146Z,393.14
2018-08-21T11:26:54.169Z,394.69
2018-08-21T11:27:54.257Z,396.42
2018-08-21T11:28:54.132Z,396.64
2018-08-21T11:29:54.211Z,394.66
2018-08-21T11:30:54.143Z,388.31
2018-08-21T11:31:54.152Z,381.89
2018-08-21T11:32:54.148Z,376.15
2018-08-21T11:33:54.197Z,369.51
2018-08-21T11:34:54.160Z,367
2018-08-21T11:35:54.163Z,367.64
2018-08-21T11:36:54.144Z,363.65
2018-08-21T11:37:54.189Z,358.29
2018-08-21T11:38:54.178Z,356.49
2018-08-21T11:39:54.164Z,357.13
2018-08-21T11:40:54.173Z,355.16
2018-08-21T11:41:54.160Z,352.23
2018-08-21T11:42:54.187Z,345.7
2018-08-21T11:43:54.180Z,341.63
2018-08-21T11:44:54.182Z,338.65
2018-08-21T11:45:54.206Z,335.93
2018-08-21T11:46:54.177Z,334.78
2018-08-21T11:47:54.166Z,335.47
2018-08-21T11:48:54.207Z,335.91
2018-08-21T11:49:54.193Z,335.21
2018-08-21T11:50:54.173Z,337.46
2018-08-21T11:51:54.199Z,339.95
2018-08-21T11:52:54.185Z,343.78
2018-08-21T11:53:54.244Z,346.3
2018-08-21T11:54:54.196Z,345.36
2018-08-21T11:55:54.216Z,341.75
2018-08-21T11:56:54.239Z,337.45
2018-08-21T11:57:54.196Z,333.11
2018-08-21T11:58:54.221Z,329.23
2018-08-21T11:59:54.199Z,327.45
2018-08-21T12:00:54.568Z,326.54
2018-08-21T12:01:54.216Z,329.73
2018-08-21T12:02:54.199Z,332.91
2018-08-21T12:03:54.203Z,335.83
2018-08-21T12:04:54.208Z,338.54
2018-08-21T12:05:54.226Z,340.6
2018-08-21T12:06:54.224Z,343.06
2018-08-21T12:07:54.220Z,342.64
2018-08-21T12:08:54.228Z,338.99
2018-08-21T12:09:54.213Z,336.89
2018-08-21T12:10:54.214Z,332.13
2018-08-21T12:11:54.232Z,327.35
2018-08-21T12:12:54.235Z,323.25
2018-08-21T12:13:54.229Z,319.99
2018-08-21T12:14:54.249Z,314.96
2018-08-21T12:15:54.238Z,310.57
2018-08-21T12:16:54.225Z,306.15
2018-08-21T12:17:54.299Z,302.72
2018-08-21T12:18:54.243Z,301.55
2018-08-21T12:19:54.246Z,301.78
2018-08-21T12:20:54.244Z,300.34
2018-08-21T12:21:54.239Z,299.42
2018-08-21T12:22:54.236Z,297.78
2018-08-21T12:23:54.241Z,296.59
2018-08-21T12:24:54.242Z,297.32
2018-08-21T12:25:54.253Z,296.38
2018-08-21T12:26:54.257Z,294.26
2018-08-21T12:27:54.261Z,293.56
2018-08-21T12:28:54.259Z,293.8
2018-08-21T12:29:54.295Z,294.7
2018-08-21T12:30:54.250Z,296.59
2018-08-21T12:31:54.278Z,298.38
2018-08-21T12:32:54.249Z,300.98
2018-08-21T12:33:54.258Z,306
2018-08-21T12:34:54.272Z,312.44
2018-08-21T12:35:54.258Z,319.28
2018-08-21T12:36:54.280Z,322
2018-08-21T12:37:54.266Z,323.18
2018-08-21T12:38:54.274Z,324.09
2018-08-21T12:39:54.287Z,324.05
2018-08-21T12:40:54.287Z,323.63
2018-08-21T12:41:54.277Z,323.12
2018-08-21T12:42:54.284Z,322.89
2018-08-21T12:43:54.294Z,322.48
2018-08-21T12:50:33.425Z,324.19
2018-08-21T12:51:33.312Z,330.32
2018-08-21T12:52:33.331Z,329.2
2018-08-21T12:53:33.308Z,326.95
2018-08-21T12:54:33.317Z,327.35
2018-08-21T12:55:33.315Z,341.42
2018-08-21T12:56:33.330Z,357.82
2018-08-21T12:57:33.318Z,352.46
2018-08-21T12:58:33.325Z,347.33
2018-08-21T13:05:12.455Z,339.12
2018-08-21T13:06:12.409Z,334.86
2018-08-21T13:07:12.395Z,332.35
2018-08-21T13:08:12.410Z,331.9
2018-08-21T13:09:12.399Z,331.21
2018-08-21T13:10:12.406Z,330.98
2018-08-21T13:11:12.357Z,331.21
2018-08-21T13:12:12.386Z,333.48
2018-08-21T13:13:12.396Z,337.58
2018-08-21T13:14:12.407Z,341.38
2018-08-21T13:15:12.408Z,343.92
2018-08-21T13:16:12.424Z,345.92
2018-08-21T13:17:12.385Z,344.77
2018-08-21T13:18:12.406Z,343.16
2018-08-21T13:19:12.419Z,340.25
2018-08-21T13:20:12.414Z,334.13
2018-08-21T13:21:12.439Z,327.74
2018-08-21T13:22:12.427Z,323.21